NEODyS-2

Near Earth Objects - Dynamic Site
NEODyS ∴ Observatories ∴ Site P93 ∴ Obs & residuals
Contact »
P93  ▹ 
OBSERVATIONS AND RESIDUALS

P93-Space Tracking and Communications Center, JAXA

Detections | Residuals | Detections & Residuals

[1-200] [201-400] [401-600] [601-800] [801-1000] [1001-1200] [1201-1400] [1401-1600] [1601-1800] [1801-1981]

Designation T Tech N Date Right Ascension Declination Apparent Magnitude Star Catalog Site code χ Used A Used M
yr-mo-day precision hr:min:sec precision rms F bias residual deg min sec precision rms F bias residual mag/col rms residual
2003BD44 O C 2017-04-03.58178 1.000E-05 11:21:15.380 1.500E-01 1.225 F 0.013 0.397 +08° 03' 57.10" 1.000E-01 1.225 F 0.010 0.260 13.6 R 0.70 0.09 r P93 0.39 Yes Yes
2003BD44 O C 2017-04-03.59437 1.000E-05 11:21:11.630 1.500E-01 1.225 F 0.013 0.455 +08° 04' 44.00" 1.000E-01 1.225 F 0.010 0.219 13.6 R 0.70 0.09 r P93 0.41 Yes Yes
2003BD44 O C 2017-04-03.61057 1.000E-05 11:21:06.800 1.500E-01 1.225 F 0.013 0.488 +08° 05' 44.50" 1.000E-01 1.225 F 0.010 0.296 13.6 R 0.70 0.09 r P93 0.47 Yes Yes
2003BD44 O C 2017-04-03.72175 1.000E-05 11:20:33.840 1.500E-01 1.225 F 0.013 0.270 +08° 12' 39.90" 1.000E-01 1.225 F 0.010 0.178 13.7 R 0.70 0.20 r P93 0.26 Yes Yes
2003BD44 O C 2017-04-03.73615 1.000E-05 11:20:29.630 1.500E-01 1.225 F 0.013 0.232 +08° 13' 33.90" 1.000E-01 1.225 F 0.010 0.210 13.7 R 0.70 0.20 r P93 0.26 Yes Yes
2003BD44 O C 2017-04-03.75956 1.000E-05 11:20:22.830 1.500E-01 1.225 F 0.013 0.200 +08° 15' 01.70" 1.000E-01 1.225 F 0.010 0.172 13.8 R 0.70 0.30 r P93 0.22 Yes Yes
2003BD44 O C 2017-04-12.58291 1.000E-05 10:01:43.210 1.500E-01 1.118 F -0.036 0.152 +24° 21' 23.20" 1.000E-01 1.118 F 0.044 -0.085 13.3 R 0.70 0.34 r P93 0.16 Yes Yes
2003BD44 O C 2017-04-12.58690 1.000E-05 10:01:39.040 1.500E-01 1.118 F -0.036 -0.076 +24° 22' 04.70" 1.000E-01 1.118 F 0.044 -0.051 13.3 R 0.70 0.34 r P93 0.08 Yes Yes
2003BD44 O C 2017-04-12.59324 1.000E-05 10:01:32.450 1.500E-01 1.118 F -0.036 0.066 +24° 23' 10.60" 1.000E-01 1.118 F 0.044 -0.029 13.3 R 0.70 0.34 r P93 0.06 Yes Yes
2003BD44 O C 2017-04-12.59553 1.000E-05 10:01:30.070 1.500E-01 1.118 F -0.036 0.124 +24° 23' 34.60" 1.000E-01 1.118 F 0.044 0.178 13.3 R 0.70 0.34 r P93 0.19 Yes Yes
2003BD44 O C 2017-04-12.61045 1.000E-05 10:01:14.520 1.500E-01 1.118 F -0.036 -0.077 +24° 26' 09.20" 1.000E-01 1.118 F 0.044 -0.207 13.3 R 0.70 0.34 r P93 0.20 Yes Yes
2007LE O C 2017-05-18.68281 1.000E-05 21:28:16.020 1.500E-01 1.000 F 0.000 0.100 +49° 39' 54.30" 1.000E-01 1.000 F 0.000 0.226 18.0 R 0.70 -0.34 r P93 0.25 Yes Yes
2007LE O C 2017-05-18.76269 1.000E-05 21:27:50.300 1.500E-01 1.000 F 0.000 0.184 +49° 28' 17.90" 1.000E-01 1.000 F 0.000 0.193 18.3 R 0.70 -0.02 r P93 0.27 Yes Yes
2007LE O C 2017-05-18.76962 1.000E-05 21:27:48.090 1.500E-01 1.000 F 0.000 0.864 +49° 27' 16.60" 1.000E-01 1.000 F 0.000 -0.029 18.3 R 0.70 -0.02 r P93 0.87 Yes Yes
2007LE O C 2017-05-18.78348 1.000E-05 21:27:43.470 1.500E-01 1.000 F 0.000 0.448 +49° 25' 14.00" 1.000E-01 1.000 F 0.000 -0.122 17.8 R 0.70 -0.52 r P93 0.47 Yes Yes
2017CS O C 2017-05-19.52632 1.000E-05 10:02:46.000 1.500E-01 1.225 F 0.008 0.641 +00° 11' 21.80" 1.000E-01 1.225 F 0.024 -0.242 17.1 R 0.70 0.99 r P93 0.56 Yes Yes
2017CS O C 2017-05-19.53078 1.000E-05 10:02:47.260 1.500E-01 1.225 F 0.008 0.259 +00° 11' 43.30" 1.000E-01 1.225 F 0.024 -0.165 17.0 R 0.70 0.89 r P93 0.25 Yes Yes
2017CS O C 2017-05-19.53745 1.000E-05 10:02:49.190 1.500E-01 1.225 F 0.008 0.198 +00° 12' 15.40" 1.000E-01 1.225 F 0.024 -0.132 16.9 R 0.70 0.79 r P93 0.19 Yes Yes
2017CS O C 2017-05-19.54412 1.000E-05 10:02:51.130 1.500E-01 1.225 F 0.008 0.074 +00° 12' 47.20" 1.000E-01 1.225 F 0.024 -0.433 17.0 R 0.70 0.89 r P93 0.36 Yes Yes
2017CS O C 2017-05-19.55080 1.000E-05 10:02:53.140 1.500E-01 1.225 F 0.008 0.735 +00° 13' 19.90" 1.000E-01 1.225 F 0.024 0.082 17.1 R 0.70 0.99 r P93 0.60 Yes Yes
2017CS O C 2017-05-19.55525 1.000E-05 10:02:54.440 1.500E-01 1.225 F 0.008 0.465 +00° 13' 40.80" 1.000E-01 1.225 F 0.024 -0.478 17.2 R 0.70 1.09 r P93 0.54 Yes Yes
2007LE O C 2017-05-19.64104 1.000E-05 21:23:26.250 1.500E-01 1.225 F 0.000 0.175 +47° 09' 09.40" 1.000E-01 1.225 F 0.000 -0.196 17.8 R 0.70 -0.35 r P93 0.22 Yes Yes
2007LE O C 2017-05-19.65950 1.000E-05 21:23:20.410 1.500E-01 1.225 F 0.000 -0.471 +47° 06' 09.00" 1.000E-01 1.225 F 0.000 -0.074 17.7 R 0.70 -0.45 r P93 0.39 Yes Yes
2007LE O C 2017-05-19.66644 1.000E-05 21:23:18.260 1.500E-01 1.225 F 0.000 -0.057 +47° 05' 01.20" 1.000E-01 1.225 F 0.000 0.145 17.9 R 0.70 -0.25 r P93 0.13 Yes Yes
2007LE O C 2017-05-19.67106 1.000E-05 21:23:16.830 1.500E-01 1.225 F 0.000 0.289 +47° 04' 16.00" 1.000E-01 1.225 F 0.000 0.274 18.0 R 0.70 -0.15 r P93 0.33 Yes Yes
2007LE O C 2017-05-19.67801 1.000E-05 21:23:14.610 1.500E-01 1.225 F 0.000 0.191 +47° 03' 07.60" 1.000E-01 1.225 F 0.000 0.141 17.9 R 0.70 -0.25 r P93 0.19 Yes Yes
2007LE O C 2017-05-19.68958 1.000E-05 21:23:10.910 1.500E-01 1.225 F -0.048 0.253 +47° 01' 12.60" 1.000E-01 1.225 F 0.003 -1.006 17.4 R 0.70 -0.74 r P93 0.85 Yes Yes
2017CS O C 2017-05-29.62889 1.000E-05 14:09:53.980 1.500E-01 1.323 F 0.034 0.137 +40° 34' 56.60" 1.000E-01 1.323 F -0.023 -0.083 13.7 R 0.70 0.28 r P93 0.12 Yes Yes
2017CS O C 2017-05-29.63373 1.000E-05 14:10:14.740 1.500E-01 1.323 F 0.034 0.191 +40° 36' 15.90" 1.000E-01 1.323 F -0.023 -0.055 13.8 R 0.70 0.38 r P93 0.15 Yes Yes
2017CS O C 2017-05-29.63581 1.000E-05 14:10:23.700 1.500E-01 1.323 F 0.034 0.545 +40° 36' 49.80" 1.000E-01 1.323 F -0.023 -0.095 13.7 R 0.70 0.28 r P93 0.42 Yes Yes
2017CS O C 2017-05-29.63788 1.000E-05 14:10:32.550 1.500E-01 1.323 F 0.034 0.072 +40° 37' 23.50" 1.000E-01 1.323 F -0.023 -0.098 13.7 R 0.70 0.28 r P93 0.09 Yes Yes
2017CS O C 2017-05-29.64030 1.000E-05 14:10:42.970 1.500E-01 1.323 F 0.034 0.276 +40° 38' 02.80" 1.000E-01 1.323 F -0.023 -0.105 13.7 R 0.70 0.28 r P93 0.22 Yes Yes
2017CS O C 2017-05-29.64170 1.000E-05 14:10:48.980 1.500E-01 1.323 F 0.034 0.147 +40° 38' 25.60" 1.000E-01 1.323 F -0.023 0.002 13.7 R 0.70 0.28 r P93 0.11 Yes Yes
2017CS O C 2017-05-29.64273 1.000E-05 14:10:53.410 1.500E-01 1.323 F 0.039 0.124 +40° 38' 42.20" 1.000E-01 1.323 F -0.015 -0.080 13.7 R 0.70 0.28 r P93 0.11 Yes Yes
Tantalus O C 2017-06-18.56890 1.000E-05 18:53:54.090 1.500E-01 1.000 F -0.173 1.017 +02° 09' 57.90" 1.000E-01 1.000 F 0.148 0.292 15.6 R 0.70 0.66 o P93 1.06 Yes Yes
Tantalus O C 2017-06-18.56982 1.000E-05 18:53:53.630 1.500E-01 1.000 F -0.173 -0.094 +02° 09' 49.50" 1.000E-01 1.000 F 0.148 -0.884 15.8 R 0.70 0.86 o P93 0.89 Yes Yes
Moshup O C 2017-06-18.59490 1.000E-05 14:49:33.070 1.500E-01 1.000 F 0.047 0.035 +54° 39' 27.00" 1.000E-01 1.000 F 0.325 -0.338 15.4 R 0.70 -0.53 o P93 0.34 Yes Yes
Moshup O C 2017-06-18.59970 1.000E-05 14:49:29.900 1.500E-01 1.000 F 0.047 0.117 +54° 39' 22.30" 1.000E-01 1.000 F 0.325 -0.430 15.3 R 0.70 -0.63 o P93 0.45 Yes Yes
Moshup O C 2017-06-18.60291 1.000E-05 14:49:27.780 1.500E-01 1.000 F 0.047 0.158 +54° 39' 19.50" 1.000E-01 1.000 F 0.325 -0.136 15.2 R 0.70 -0.73 o P93 0.21 Yes Yes
Moshup O C 2017-06-18.60451 1.000E-05 14:49:26.740 1.500E-01 1.000 F 0.047 0.319 +54° 39' 18.40" 1.000E-01 1.000 F 0.325 0.310 15.3 R 0.70 -0.63 o P93 0.44 Yes Yes
2005UP156 O C 2017-06-18.68357 1.000E-05 16:44:31.070 1.500E-01 1.414 F 0.246 -0.734 +09° 25' 04.10" 1.000E-01 1.414 F 0.092 0.001 14.9 R 0.70 0.50 o P93 0.52 Yes Yes
2005UP156 O C 2017-06-18.68483 1.000E-05 16:44:31.320 1.500E-01 1.414 F 0.246 -0.192 +09° 25' 05.70" 1.000E-01 1.414 F 0.092 -0.240 14.9 R 0.70 0.50 o P93 0.22 Yes Yes
2005UP156 O C 2017-06-18.68608 1.000E-05 16:44:31.510 1.500E-01 1.414 F 0.246 -0.514 +09° 25' 07.60" 1.000E-01 1.414 F 0.092 -0.165 14.9 R 0.70 0.50 o P93 0.38 Yes Yes
2005UP156 O C 2017-06-18.68733 1.000E-05 16:44:31.750 1.500E-01 1.414 F 0.246 -0.098 +09° 25' 09.10" 1.000E-01 1.414 F 0.092 -0.490 14.9 R 0.70 0.50 o P93 0.35 Yes Yes
2005UP156 O C 2017-06-18.68859 1.000E-05 16:44:31.940 1.500E-01 1.414 F 0.246 -0.449 +09° 25' 11.30" 1.000E-01 1.414 F 0.092 -0.130 14.9 R 0.70 0.50 o P93 0.33 Yes Yes
2005UP156 O C 2017-06-18.68984 1.000E-05 16:44:32.180 1.500E-01 1.414 F 0.246 -0.037 +09° 25' 13.10" 1.000E-01 1.414 F 0.092 -0.154 14.9 R 0.70 0.50 o P93 0.11 Yes Yes
2005UP156 O C 2017-06-18.69109 1.000E-05 16:44:32.370 1.500E-01 1.414 F 0.246 -0.367 +09° 25' 14.70" 1.000E-01 1.414 F 0.092 -0.378 14.9 R 0.70 0.50 o P93 0.37 Yes Yes
2005UP156 O C 2017-06-18.69234 1.000E-05 16:44:32.580 1.500E-01 1.414 F 0.246 -0.403 +09° 25' 16.70" 1.000E-01 1.414 F 0.092 -0.201 14.9 R 0.70 0.50 o P93 0.32 Yes Yes
Jason O C 2017-06-19.58869 1.000E-05 15:41:20.170 1.500E-01 1.000 F 0.052 -0.511 -00° 32' 50.30" 1.000E-01 1.000 F 0.230 -0.145 15.4 R 0.70 0.24 o P93 0.53 Yes Yes
Jason O C 2017-06-19.59029 1.000E-05 15:41:20.330 1.500E-01 1.000 F 0.052 0.220 -00° 32' 54.50" 1.000E-01 1.000 F 0.230 -0.165 15.5 R 0.70 0.34 o P93 0.27 Yes Yes
Jason O C 2017-06-19.59189 1.000E-05 15:41:20.410 1.500E-01 1.000 F 0.052 -0.250 -00° 32' 58.50" 1.000E-01 1.000 F 0.230 0.015 15.3 R 0.70 0.13 o P93 0.25 Yes Yes
2017MF O C 2017-06-19.63139 1.000E-05 17:35:58.090 1.500E-01 1.323 F 0.088 0.007 +20° 24' 24.70" 1.000E-01 1.323 F 0.205 0.096 15.1 R 0.70 -0.06 o P93 0.07 Yes Yes
2017MF O C 2017-06-19.63243 1.000E-05 17:36:11.710 1.500E-01 1.323 F 0.088 -0.142 +20° 27' 01.70" 1.000E-01 1.323 F 0.205 -0.119 15.4 R 0.70 0.24 o P93 0.14 Yes Yes
2017MF O C 2017-06-19.63278 1.000E-05 17:36:16.310 1.500E-01 1.323 F 0.088 -0.036 +20° 27' 54.80" 1.000E-01 1.323 F 0.205 0.057 15.2 R 0.70 0.04 o P93 0.05 Yes Yes
2017MF O C 2017-06-19.63313 1.000E-05 17:36:20.900 1.500E-01 1.323 F 0.054 -0.072 +20° 28' 47.60" 1.000E-01 1.323 F 0.257 -0.125 15.0 R 0.70 -0.16 o P93 0.11 Yes Yes
2017MF O C 2017-06-19.63348 1.000E-05 17:36:25.490 1.500E-01 1.323 F 0.054 -0.180 +20° 29' 40.40" 1.000E-01 1.323 F 0.257 -0.263 15.3 R 0.70 0.14 o P93 0.24 Yes Yes
2017MF O C 2017-06-19.63382 1.000E-05 17:36:29.990 1.500E-01 1.323 F 0.054 0.258 +20° 30' 32.20" 1.000E-01 1.323 F 0.257 0.105 15.0 R 0.70 -0.16 o P93 0.21 Yes Yes
2017MF O C 2017-06-19.63417 1.000E-05 17:36:34.590 1.500E-01 1.323 F 0.054 0.218 +20° 31' 25.00" 1.000E-01 1.323 F 0.257 -0.047 15.6 R 0.70 0.44 o P93 0.17 Yes Yes
2002TX68 O C 2017-07-14.69073 1.000E-05 20:15:11.430 1.500E-01 1.000 F 0.050 -0.228 +29° 25' 55.10" 1.000E-01 1.000 F 0.306 -0.064 17.1 R 0.70 0.15 o P93 0.24 Yes Yes
2002TX68 O C 2017-07-14.69349 1.000E-05 20:15:11.570 1.500E-01 1.000 F 0.050 -0.101 +29° 25' 47.80" 1.000E-01 1.000 F 0.306 -0.274 17.2 R 0.70 0.25 o P93 0.29 Yes Yes
2002TX68 O C 2017-07-14.69627 1.000E-05 20:15:11.690 1.500E-01 1.000 F 0.050 -0.249 +29° 25' 40.60" 1.000E-01 1.000 F 0.306 -0.329 17.4 R 0.70 0.45 o P93 0.41 Yes Yes
2002TX68 O C 2017-07-14.69904 1.000E-05 20:15:11.840 1.500E-01 1.000 F 0.050 0.000 +29° 25' 33.50" 1.000E-01 1.000 F 0.306 -0.304 17.3 R 0.70 0.35 o P93 0.30 Yes Yes
2017NM6 O C 2017-07-15.67954 1.000E-05 19:47:43.070 1.500E-01 1.000 F 0.036 0.078 +62° 11' 42.90" 1.000E-01 1.000 F 0.187 -0.279 16.8 R 0.70 0.22 o P93 0.29 Yes Yes
2017NM6 O C 2017-07-15.68116 1.000E-05 19:47:39.850 1.500E-01 1.000 F 0.036 0.271 +62° 11' 47.60" 1.000E-01 1.000 F 0.187 -0.333 16.9 R 0.70 0.32 o P93 0.43 Yes Yes
2017NM6 O C 2017-07-15.68438 1.000E-05 19:47:33.330 1.500E-01 1.000 F 0.036 -0.214 +62° 11' 56.90" 1.000E-01 1.000 F 0.187 -0.445 16.8 R 0.70 0.22 o P93 0.49 Yes Yes
2017NM6 O C 2017-07-15.68599 1.000E-05 19:47:30.170 1.500E-01 1.000 F 0.036 0.230 +62° 12' 01.30" 1.000E-01 1.000 F 0.187 -0.734 16.5 R 0.70 -0.08 o P93 0.77 Yes Yes
2017NM6 O C 2017-07-16.55418 1.000E-05 19:21:51.260 1.500E-01 1.000 F -0.056 -0.026 +62° 42' 01.10" 1.000E-01 1.000 F 0.150 -0.429 17.1 R 0.70 0.29 o P93 0.43 Yes Yes
2017NM6 O C 2017-07-16.55524 1.000E-05 19:21:49.510 1.500E-01 1.000 F -0.056 0.058 +62° 42' 02.60" 1.000E-01 1.000 F 0.150 -0.422 17.2 R 0.70 0.39 o P93 0.43 Yes Yes
2017NM6 O C 2017-07-16.55800 1.000E-05 19:21:44.900 1.500E-01 1.000 F -0.056 -0.097 +62° 42' 06.50" 1.000E-01 1.000 F 0.150 -0.392 17.2 R 0.70 0.39 o P93 0.40 Yes Yes
2017NM6 O C 2017-07-16.55892 1.000E-05 19:21:43.390 1.500E-01 1.000 F -0.056 0.031 +62° 42' 07.60" 1.000E-01 1.000 F 0.150 -0.576 17.1 R 0.70 0.29 o P93 0.58 Yes Yes
2017NM6 O C 2017-07-17.55629 1.000E-05 18:57:36.130 1.500E-01 1.000 F 0.080 0.307 +62° 53' 14.50" 1.000E-01 1.000 F 0.107 -0.377 17.4 R 0.70 0.35 m P93 0.49 Yes Yes
2017NM6 O C 2017-07-17.55686 1.000E-05 18:57:35.330 1.500E-01 1.000 F 0.080 0.062 +62° 53' 14.60" 1.000E-01 1.000 F 0.107 -0.411 17.4 R 0.70 0.35 m P93 0.42 Yes Yes
2017NM6 O C 2017-07-17.55973 1.000E-05 18:57:31.500 1.500E-01 1.000 F 0.080 0.172 +62° 53' 15.30" 1.000E-01 1.000 F 0.107 -0.375 17.4 R 0.70 0.34 m P93 0.41 Yes Yes
2017OC O C m 2017-07-19.50890 1.000E-05 15:17:47.770 1.500E-01 1.118 F -0.090 -0.108 -06° 31' 42.10" 1.000E-01 1.118 F -0.055 0.495 19.3 R 0.70 0.18 r P93 0.45 Yes Yes
2017OC O C m 2017-07-19.51052 1.000E-05 15:17:48.270 1.500E-01 1.118 F -0.090 0.162 -06° 31' 36.70" 1.000E-01 1.118 F -0.055 0.576 19.0 R 0.70 -0.12 r P93 0.54 Yes Yes
2017OC O C m 2017-07-19.51213 1.000E-05 15:17:48.750 1.500E-01 1.118 F -0.090 0.178 -06° 31' 31.80" 1.000E-01 1.118 F -0.055 0.190 18.9 R 0.70 -0.22 r P93 0.23 Yes Yes
2017OC O C m 2017-07-19.52022 1.000E-05 15:17:51.080 1.500E-01 1.118 F -0.090 -0.989 -06° 31' 06.00" 1.000E-01 1.118 F -0.055 -0.574 19.6 R 0.70 0.48 r P93 1.03 Yes Yes
2017OC O C m 2017-07-19.52994 1.000E-05 15:17:54.040 1.500E-01 1.118 F -0.090 -0.051 -06° 30' 33.00" 1.000E-01 1.118 F -0.055 0.503 18.6 R 0.70 -0.53 r P93 0.45 Yes Yes
2017OD O C m 2017-07-19.54503 1.000E-05 17:23:08.720 1.500E-01 1.000 F 0.000 0.037 +12° 08' 01.80" 1.000E-01 1.000 F -0.032 -0.045 17.9 R 0.70 0.15 r P93 0.06 Yes Yes
2017OD O C m 2017-07-19.54895 1.000E-05 17:23:08.240 1.500E-01 1.000 F 0.000 0.179 +12° 09' 50.20" 1.000E-01 1.000 F -0.032 -0.280 17.7 R 0.70 -0.05 r P93 0.33 Yes Yes
2017OD O C m 2017-07-19.55091 1.000E-05 17:23:07.990 1.500E-01 1.000 F 0.000 0.098 +12° 10' 44.70" 1.000E-01 1.000 F -0.032 -0.063 17.9 R 0.70 0.15 r P93 0.12 Yes Yes
2017KR34 O C 2017-07-19.57200 1.000E-05 16:39:05.730 1.500E-01 1.118 F -0.117 0.146 -11° 03' 55.00" 1.000E-01 1.118 F -0.060 -0.374 19.3 R 0.70 0.49 r P93 0.36 Yes Yes
2017KR34 O C 2017-07-19.57683 1.000E-05 16:39:06.530 1.500E-01 1.118 F -0.117 -0.339 -11° 03' 50.00" 1.000E-01 1.118 F -0.060 -0.363 19.4 R 0.70 0.59 r P93 0.45 Yes Yes
2017KR34 O C 2017-07-19.58167 1.000E-05 16:39:07.400 1.500E-01 1.118 F -0.117 0.168 -11° 03' 44.80" 1.000E-01 1.118 F -0.060 -0.167 19.1 R 0.70 0.29 r P93 0.21 Yes Yes
2017KR34 O C 2017-07-19.58651 1.000E-05 16:39:08.250 1.500E-01 1.118 F -0.117 0.367 -11° 03' 39.40" 1.000E-01 1.118 F -0.060 0.226 19.1 R 0.70 0.29 r P93 0.39 Yes Yes
2017KR34 O C 2017-07-19.59136 1.000E-05 16:39:09.090 1.500E-01 1.118 F -0.117 0.379 -11° 03' 34.70" 1.000E-01 1.118 F -0.060 -0.096 19.0 R 0.70 0.19 r P93 0.35 Yes Yes
2017MY2 O C 2017-07-19.62790 1.000E-05 21:01:08.690 1.500E-01 1.000 F 0.036 -0.130 +00° 30' 55.70" 1.000E-01 1.000 F 0.018 -0.176 20.1 R 0.70 0.80 r P93 0.22 Yes Yes
2017MY2 O C 2017-07-19.63276 1.000E-05 21:01:09.220 1.500E-01 1.000 F 0.036 0.208 +00° 30' 55.60" 1.000E-01 1.000 F 0.018 0.583 19.8 R 0.70 0.50 r P93 0.62 Yes Yes
2017MY2 O C 2017-07-19.63761 1.000E-05 21:01:09.710 1.500E-01 1.000 F 0.036 -0.030 +00° 30' 54.30" 1.000E-01 1.000 F 0.018 0.141 19.7 R 0.70 0.40 r P93 0.14 Yes Yes
2017MY2 O C 2017-07-19.64245 1.000E-05 21:01:10.230 1.500E-01 1.000 F 0.036 0.204 +00° 30' 53.30" 1.000E-01 1.000 F 0.018 -0.002 19.9 R 0.70 0.60 r P93 0.21 Yes Yes
2017OC O C m 2017-07-20.56009 1.000E-05 15:23:12.420 1.500E-01 1.118 F 0.081 0.227 -05° 34' 52.10" 1.000E-01 1.118 F 0.044 -0.436 18.9 R 0.70 -0.24 r P93 0.44 Yes Yes
2017OC O C m 2017-07-20.56170 1.000E-05 15:23:12.860 1.500E-01 1.118 F 0.081 -0.378 -05° 34' 46.90" 1.000E-01 1.118 F 0.044 -0.434 19.2 R 0.70 0.06 r P93 0.52 Yes Yes
2017OC O C m 2017-07-20.56332 1.000E-05 15:23:13.400 1.500E-01 1.118 F 0.081 0.463 -05° 34' 41.40" 1.000E-01 1.118 F 0.044 -0.164 19.1 R 0.70 -0.04 r P93 0.44 Yes Yes
2017OC O C m 2017-07-20.56493 1.000E-05 15:23:13.880 1.500E-01 1.118 F 0.081 0.451 -05° 34' 36.80" 1.000E-01 1.118 F 0.044 -0.762 19.2 R 0.70 0.06 r P93 0.79 Yes Yes
2017OC O C m 2017-07-20.56654 1.000E-05 15:23:14.350 1.500E-01 1.118 F 0.081 0.287 -05° 34' 30.70" 1.000E-01 1.118 F 0.044 0.140 19.5 R 0.70 0.36 r P93 0.29 Yes Yes
2002TX68 O C m 2017-07-20.62303 1.000E-05 20:20:49.250 1.500E-01 1.000 F -0.008 -0.045 +24° 42' 11.80" 1.000E-01 1.000 F -0.040 0.033 17.2 R 0.70 0.46 r P93 0.06 Yes Yes
2002TX68 O C m 2017-07-20.62626 1.000E-05 20:20:49.400 1.500E-01 1.000 F -0.008 0.176 +24° 42' 01.30" 1.000E-01 1.000 F -0.040 -0.210 17.2 R 0.70 0.46 r P93 0.27 Yes Yes
2002TX68 O C m 2017-07-20.62949 1.000E-05 20:20:49.540 1.500E-01 1.000 F -0.008 0.263 +24° 41' 51.20" 1.000E-01 1.000 F -0.040 -0.047 17.2 R 0.70 0.46 r P93 0.27 Yes Yes
2002TX68 O C m 2017-07-20.63273 1.000E-05 20:20:49.680 1.500E-01 1.000 F -0.008 0.345 +24° 41' 40.80" 1.000E-01 1.000 F -0.040 -0.147 17.2 R 0.70 0.46 r P93 0.38 Yes Yes
2017OE7 O C 2017-07-26.67010 1.000E-05 22:59:31.700 1.500E-01 1.118 F 0.016 0.638 -11° 44' 59.20" 1.000E-01 1.118 F -0.060 -0.049 18.2 R 0.70 0.44 r P93 0.58 Yes Yes
2017OE7 O C 2017-07-26.67102 1.000E-05 22:59:34.180 1.500E-01 1.118 F 0.016 0.248 -11° 44' 39.00" 1.000E-01 1.118 F -0.060 -0.192 17.4 R 0.70 -0.36 r P93 0.28 Yes Yes
2017OE7 O C 2017-07-26.67195 1.000E-05 22:59:36.730 1.500E-01 1.118 F 0.016 0.495 -11° 44' 17.30" 1.000E-01 1.118 F -0.060 0.939 17.8 R 0.70 0.04 r P93 0.96 Yes Yes
2017OE7 O C 2017-07-26.67287 1.000E-05 22:59:39.220 1.500E-01 1.118 F 0.016 0.271 -11° 43' 58.80" 1.000E-01 1.118 F -0.060 -0.914 17.8 R 0.70 0.04 r P93 0.86 Yes Yes
2017OE7 O C 2017-07-26.67378 1.000E-05 22:59:41.710 1.500E-01 1.118 F 0.016 0.457 -11° 43' 37.50" 1.000E-01 1.118 F -0.060 0.248 18.2 R 0.70 0.44 r P93 0.47 Yes Yes
2002TX68 O C 2017-08-03.73547 1.000E-05 20:32:46.280 1.500E-01 1.000 F 0.059 0.031 +09° 45' 09.80" 1.000E-01 1.000 F 0.014 0.121 17.1 R 0.70 0.79 r P93 0.12 Yes Yes
2002TX68 O C 2017-08-03.73802 1.000E-05 20:32:46.420 1.500E-01 1.000 F 0.059 0.553 +09° 44' 59.10" 1.000E-01 1.000 F 0.014 0.331 17.3 R 0.70 0.99 r P93 0.64 Yes Yes
2002TX68 O C 2017-08-03.73929 1.000E-05 20:32:46.450 1.500E-01 1.000 F 0.059 0.224 +09° 44' 53.40" 1.000E-01 1.000 F 0.014 0.065 17.1 R 0.70 0.79 r P93 0.23 Yes Yes
2002TX68 O C 2017-08-03.74056 1.000E-05 20:32:46.530 1.500E-01 1.000 F 0.059 0.632 +09° 44' 47.90" 1.000E-01 1.000 F 0.014 -0.001 17.4 R 0.70 1.09 r P93 0.63 Yes Yes
2003AZ2 O C 2017-08-03.75901 1.000E-05 01:02:10.990 1.500E-01 1.000 F 0.022 -0.407 -13° 48' 35.70" 1.000E-01 1.000 F 0.060 -0.424 17.2 R 0.70 1.17 r P93 0.59 Yes Yes
2003AZ2 O C 2017-08-03.76155 1.000E-05 01:02:11.930 1.500E-01 1.000 F 0.022 -0.391 -13° 48' 55.50" 1.000E-01 1.000 F 0.060 -0.496 17.4 R 0.70 1.37 r P93 0.63 Yes Yes
2003AZ2 O C 2017-08-03.76408 1.000E-05 01:02:12.900 1.500E-01 1.000 F 0.022 0.118 -13° 49' 15.30" 1.000E-01 1.000 F 0.060 -0.649 17.5 R 0.70 1.47 r P93 0.66 Yes Yes
2003AZ2 O C 2017-08-03.76534 1.000E-05 01:02:13.320 1.500E-01 1.000 F 0.022 -0.545 -13° 49' 25.90" 1.000E-01 1.000 F 0.060 -1.466 17.3 R 0.70 1.27 r P93 1.57 Yes Yes
2017QP2 O C K 2017-08-20.61598 1.000E-05 21:27:23.730 1.500E-01 1.225 F -0.016 1.527 -11° 20' 59.30" 1.000E-01 1.225 F -0.021 1.073 19.7 R 0.70 0.72 r P93 1.55 Yes Yes
2017QP2 O C K 2017-08-20.61852 1.000E-05 21:27:22.690 1.500E-01 1.225 F -0.016 -0.233 -11° 21' 21.10" 1.000E-01 1.225 F -0.021 -0.512 19.6 R 0.70 0.62 r P93 0.47 Yes Yes
2017QP2 O C K 2017-08-20.62106 1.000E-05 21:27:21.810 1.500E-01 1.225 F -0.016 0.363 -11° 21' 41.10" 1.000E-01 1.225 F -0.021 -0.296 19.4 R 0.70 0.42 r P93 0.38 Yes Yes
2017QP2 O C K 2017-08-20.62359 1.000E-05 21:27:20.920 1.500E-01 1.225 F -0.016 0.763 -11° 22' 00.40" 1.000E-01 1.225 F -0.021 0.541 19.3 R 0.70 0.32 r P93 0.78 Yes Yes
2017QP2 O C K 2017-08-20.62612 1.000E-05 21:27:19.990 1.500E-01 1.225 F -0.016 0.576 -11° 22' 21.90" 1.000E-01 1.225 F -0.021 -0.821 19.3 R 0.70 0.32 r P93 0.82 Yes Yes
2017QP2 O C K 2017-08-20.62866 1.000E-05 21:27:19.090 1.500E-01 1.225 F -0.016 0.886 -11° 22' 40.70" 1.000E-01 1.225 F -0.021 0.596 19.6 R 0.70 0.62 r P93 0.89 Yes Yes
2017QY34 O C 2017-08-31.50116 1.000E-05 17:04:51.810 1.500E-01 1.118 F 0.027 0.075 +23° 38' 06.00" 1.000E-01 1.118 F 0.047 -0.387 18.3 R 0.70 0.37 r P93 0.35 Yes Yes
2017QY34 O C 2017-08-31.50209 1.000E-05 17:04:52.750 1.500E-01 1.118 F 0.027 0.497 +23° 38' 05.80" 1.000E-01 1.118 F 0.047 -0.516 18.1 R 0.70 0.17 r P93 0.64 Yes Yes
2017QY34 O C 2017-08-31.50393 1.000E-05 17:04:54.530 1.500E-01 1.118 F 0.027 0.235 +23° 38' 06.20" 1.000E-01 1.118 F 0.047 0.029 18.1 R 0.70 0.17 r P93 0.21 Yes Yes
2017QY34 O C 2017-08-31.50484 1.000E-05 17:04:55.410 1.500E-01 1.118 F 0.027 0.103 +23° 38' 05.80" 1.000E-01 1.118 F 0.047 -0.297 18.1 R 0.70 0.17 r P93 0.28 Yes Yes
2017QY34 O C 2017-08-31.50576 1.000E-05 17:04:56.330 1.500E-01 1.118 F 0.027 0.386 +23° 38' 05.80" 1.000E-01 1.118 F 0.047 -0.221 18.2 R 0.70 0.27 r P93 0.40 Yes Yes
2017QV34 O C 2017-08-31.58503 1.000E-05 20:54:56.400 1.500E-01 1.000 F 0.001 1.102 +07° 44' 29.10" 1.000E-01 1.000 F 0.024 1.125 19.6 R 0.70 0.41 r P93 1.58 Yes Yes
2017QV34 O C 2017-08-31.58630 1.000E-05 20:54:56.290 1.500E-01 1.000 F 0.001 1.053 +07° 44' 27.80" 1.000E-01 1.000 F 0.024 0.792 19.1 R 0.70 -0.09 r P93 1.32 Yes Yes
2017QV34 O C 2017-08-31.58756 1.000E-05 20:54:56.130 1.500E-01 1.000 F 0.001 0.248 +07° 44' 25.90" 1.000E-01 1.000 F 0.024 -0.149 19.3 R 0.70 0.11 r P93 0.29 Yes Yes
2017QV34 O C 2017-08-31.58884 1.000E-05 20:54:56.080 1.500E-01 1.000 F 0.001 1.103 +07° 44' 25.20" 1.000E-01 1.000 F 0.024 0.125 19.5 R 0.70 0.31 r P93 1.11 Yes Yes
2002CF26 O C 2017-08-31.64556 1.000E-05 03:13:45.730 1.500E-01 1.000 F 0.018 -0.511 +44° 28' 21.50" 1.000E-01 1.000 F -0.070 -1.270 17.2 R 0.70 0.62 r P93 1.37 Yes Yes
2002CF26 O C 2017-08-31.64682 1.000E-05 03:13:45.860 1.500E-01 1.000 F 0.018 -1.115 +44° 28' 34.60" 1.000E-01 1.000 F -0.070 -0.632 17.2 R 0.70 0.62 r P93 1.28 Yes Yes
2002CF26 O C 2017-08-31.64807 1.000E-05 03:13:46.030 1.500E-01 1.000 F 0.018 -1.272 +44° 28' 47.20" 1.000E-01 1.000 F -0.070 -0.394 17.2 R 0.70 0.62 r P93 1.33 Yes Yes
2017QT35 O C 2017-08-31.72084 1.000E-05 00:12:48.210 1.500E-01 1.118 F 0.006 -0.704 +20° 20' 44.80" 1.000E-01 1.118 F -0.030 -0.312 20.3 R 0.70 0.43 r P93 0.69 Yes Yes
2017QT35 O C 2017-08-31.72672 1.000E-05 00:12:49.100 1.500E-01 1.118 F 0.006 -0.412 +20° 20' 44.60" 1.000E-01 1.118 F -0.030 0.595 20.3 R 0.70 0.43 r P93 0.65 Yes Yes
2017QT35 O C 2017-08-31.73260 1.000E-05 00:12:49.910 1.500E-01 1.118 F 0.006 -1.251 +20° 20' 42.50" 1.000E-01 1.118 F -0.030 -0.386 20.1 R 0.70 0.23 r P93 1.17 Yes Yes
2017QT35 O C 2017-08-31.73850 1.000E-05 00:12:50.900 1.500E-01 1.118 F 0.006 0.392 +20° 20' 42.30" 1.000E-01 1.118 F -0.030 0.550 20.6 R 0.70 0.73 r P93 0.61 Yes Yes
2017QT35 O C 2017-08-31.74440 1.000E-05 00:12:51.750 1.500E-01 1.118 F 0.006 0.057 +20° 20' 40.80" 1.000E-01 1.118 F -0.030 0.198 20.7 R 0.70 0.83 r P93 0.18 Yes Yes
2017QL35 O C K 2017-09-01.53928 1.000E-05 21:02:22.950 1.500E-01 1.000 F 0.035 0.650 +18° 41' 51.40" 1.000E-01 1.000 F 0.052 -0.161 19.6 R 0.70 0.40 r P93 0.67 Yes Yes
2017QL35 O C K 2017-09-01.54413 1.000E-05 21:02:23.420 1.500E-01 1.000 F 0.035 0.738 +18° 41' 45.80" 1.000E-01 1.000 F 0.052 0.049 19.8 R 0.70 0.60 r P93 0.74 Yes Yes
2017QL35 O C K 2017-09-01.54897 1.000E-05 21:02:23.920 1.500E-01 1.000 F 0.035 1.268 +18° 41' 39.90" 1.000E-01 1.000 F 0.052 -0.044 20.0 R 0.70 0.80 r P93 1.27 Yes Yes
2017QL35 O C K 2017-09-01.55382 1.000E-05 21:02:24.350 1.500E-01 1.000 F 0.035 0.789 +18° 41' 34.60" 1.000E-01 1.000 F 0.052 0.484 19.6 R 0.70 0.40 r P93 0.93 Yes Yes
2017RU1 O C 2017-09-12.50257 1.000E-05 21:30:10.960 1.500E-01 1.118 F 0.018 0.349 -14° 44' 27.10" 1.000E-01 1.118 F -0.045 -0.179 18.8 R 0.70 0.33 r P93 0.35 Yes Yes
2017RU1 O C 2017-09-12.50489 1.000E-05 21:30:10.350 1.500E-01 1.118 F 0.018 -0.159 -14° 44' 01.90" 1.000E-01 1.118 F -0.045 -0.143 18.9 R 0.70 0.43 r P93 0.19 Yes Yes
2017RU1 O C 2017-09-12.50721 1.000E-05 21:30:09.790 1.500E-01 1.118 F 0.018 0.060 -14° 43' 36.50" 1.000E-01 1.118 F -0.045 0.088 19.0 R 0.70 0.53 r P93 0.10 Yes Yes
2017RU1 O C 2017-09-12.50957 1.000E-05 21:30:09.220 1.500E-01 1.118 F 0.018 0.282 -14° 43' 11.10" 1.000E-01 1.118 F -0.045 -0.119 18.8 R 0.70 0.33 r P93 0.27 Yes Yes
2017RU1 O C 2017-09-12.51187 1.000E-05 21:30:08.610 1.500E-01 1.118 F 0.018 -0.289 -14° 42' 46.00" 1.000E-01 1.118 F -0.045 0.020 18.9 R 0.70 0.43 r P93 0.26 Yes Yes
2017SP2 O C 2017-09-18.50062 1.000E-05 23:45:16.290 1.500E-01 1.323 F 0.002 0.346 +09° 27' 46.90" 1.000E-01 1.323 F 0.014 -0.108 18.4 R 0.70 0.82 r P93 0.28 Yes Yes
2017SP2 O C 2017-09-18.50170 1.000E-05 23:45:13.340 1.500E-01 1.323 F 0.002 -0.155 +09° 29' 02.10" 1.000E-01 1.323 F 0.014 0.154 18.5 R 0.70 0.92 r P93 0.17 Yes Yes
2017SP2 O C 2017-09-18.50265 1.000E-05 23:45:10.770 1.500E-01 1.323 F 0.002 -0.247 +09° 30' 08.20" 1.000E-01 1.323 F 0.014 0.395 18.7 R 0.70 1.11 r P93 0.36 Yes Yes
2017SP2 O C 2017-09-18.50360 1.000E-05 23:45:08.190 1.500E-01 1.323 F 0.002 -0.504 +09° 31' 13.60" 1.000E-01 1.323 F 0.014 -0.010 18.8 R 0.70 1.21 r P93 0.39 Yes Yes
2017SP2 O C 2017-09-18.50456 1.000E-05 23:45:05.680 1.500E-01 1.323 F 0.002 0.656 +09° 32' 19.90" 1.000E-01 1.323 F 0.014 -0.153 18.7 R 0.70 1.11 r P93 0.52 Yes Yes
2017SP2 O C 2017-09-18.50551 1.000E-05 23:45:03.100 1.500E-01 1.323 F 0.002 0.363 +09° 33' 25.90" 1.000E-01 1.323 F 0.014 0.151 18.4 R 0.70 0.81 r P93 0.30 Yes Yes
2017SP2 O C 2017-09-18.50647 1.000E-05 23:45:00.510 1.500E-01 1.323 F 0.002 0.303 +09° 34' 31.90" 1.000E-01 1.323 F 0.014 -0.181 18.5 R 0.70 0.91 r P93 0.27 Yes Yes
2004RE84 O C 2017-09-18.50971 1.000E-05 23:31:09.480 1.500E-01 1.225 F 0.012 0.151 +05° 41' 43.00" 1.000E-01 1.225 F -0.025 0.494 19.0 R 0.70 0.56 r P93 0.42 Yes Yes
2004RE84 O C 2017-09-18.51135 1.000E-05 23:31:09.110 1.500E-01 1.225 F 0.012 0.045 +05° 41' 44.40" 1.000E-01 1.225 F -0.025 0.257 19.1 R 0.70 0.66 r P93 0.21 Yes Yes
2004RE84 O C 2017-09-18.51301 1.000E-05 23:31:08.780 1.500E-01 1.225 F 0.012 0.606 +05° 41' 46.00" 1.000E-01 1.225 F -0.025 0.199 19.1 R 0.70 0.67 r P93 0.52 Yes Yes
2004RE84 O C 2017-09-18.51467 1.000E-05 23:31:08.420 1.500E-01 1.225 F 0.012 0.724 +05° 41' 48.00" 1.000E-01 1.225 F -0.025 0.542 19.0 R 0.70 0.57 r P93 0.74 Yes Yes
2004RE84 O C 2017-09-18.51631 1.000E-05 23:31:08.030 1.500E-01 1.225 F 0.012 0.332 +05° 41' 49.50" 1.000E-01 1.225 F -0.025 0.405 19.1 R 0.70 0.67 r P93 0.43 Yes Yes
2004RE84 O C 2017-09-18.51795 1.000E-05 23:31:07.670 1.500E-01 1.225 F 0.012 0.391 +05° 41' 50.60" 1.000E-01 1.225 F -0.025 -0.132 19.3 R 0.70 0.87 r P93 0.34 Yes Yes
2017SM2 O C 2017-09-18.52508 1.000E-05 21:39:54.790 1.500E-01 1.225 F 0.017 0.342 +04° 22' 50.20" 1.000E-01 1.225 F 0.032 -0.128 18.5 R 0.70 0.45 r P93 0.30 Yes Yes
2017SM2 O C 2017-09-18.52673 1.000E-05 21:39:52.320 1.500E-01 1.225 F 0.017 0.099 +04° 22' 16.70" 1.000E-01 1.225 F 0.032 0.089 18.6 R 0.70 0.55 r P93 0.11 Yes Yes
2017SM2 O C 2017-09-18.52837 1.000E-05 21:39:49.880 1.500E-01 1.225 F 0.017 0.152 +04° 21' 43.40" 1.000E-01 1.225 F 0.032 0.366 18.3 R 0.70 0.25 r P93 0.33 Yes Yes
2017SM2 O C 2017-09-18.53002 1.000E-05 21:39:47.440 1.500E-01 1.225 F 0.017 0.497 +04° 21' 09.00" 1.000E-01 1.225 F 0.032 -0.184 18.6 R 0.70 0.56 r P93 0.44 Yes Yes
2017SM2 O C 2017-09-18.53167 1.000E-05 21:39:44.950 1.500E-01 1.225 F 0.017 0.163 +04° 20' 35.40" 1.000E-01 1.225 F 0.032 0.132 18.4 R 0.70 0.36 r P93 0.17 Yes Yes
2017SM2 O C 2017-09-18.53332 1.000E-05 21:39:42.480 1.500E-01 1.225 F 0.017 0.196 +04° 20' 01.50" 1.000E-01 1.225 F 0.032 0.215 18.5 R 0.70 0.46 r P93 0.24 Yes Yes
2017SN14 O C 2017-09-24.47874 1.000E-05 16:23:44.620 1.500E-01 1.000 F 0.031 -0.295 +33° 10' 45.00" 1.000E-01 1.000 F -0.025 0.253 19.1 R 0.70 -0.04 r P93 0.39 Yes Yes
2017SN14 O C 2017-09-24.48036 1.000E-05 16:23:45.490 1.500E-01 1.000 F 0.031 -0.605 +33° 10' 48.90" 1.000E-01 1.000 F -0.025 -0.071 19.4 R 0.70 0.26 r P93 0.61 Yes Yes
2017SN14 O C 2017-09-24.48197 1.000E-05 16:23:46.450 1.500E-01 1.000 F 0.031 0.282 +33° 10' 53.50" 1.000E-01 1.000 F -0.025 0.333 19.7 R 0.70 0.56 r P93 0.44 Yes Yes
2017SV11 O C K 2017-09-25.52861 1.000E-05 23:35:21.100 1.500E-01 1.000 F -0.008 -0.346 +18° 04' 52.00" 1.000E-01 1.000 F -0.023 1.206 21.0 R 0.70 0.72 r P93 1.26 Yes Yes
2017SV11 O C K 2017-09-25.53451 1.000E-05 23:35:21.880 1.500E-01 1.000 F -0.008 0.603 +18° 05' 25.30" 1.000E-01 1.000 F -0.023 0.822 20.9 R 0.70 0.62 r P93 1.03 Yes Yes
2017SV11 O C K 2017-09-25.54040 1.000E-05 23:35:22.500 1.500E-01 1.000 F -0.008 -0.684 +18° 05' 58.60" 1.000E-01 1.000 F -0.023 0.515 20.9 R 0.70 0.62 r P93 0.86 Yes Yes
2012TC4 O C 2017-10-08.43447 1.000E-05 22:59:24.640 1.500E-01 1.118 F 0.037 -0.034 -02° 32' 58.90" 1.000E-01 1.118 F -0.096 0.402 18.9 R 0.70 0.48 r P93 0.36 Yes Yes
2012TC4 O C 2017-10-08.43608 1.000E-05 22:59:24.250 1.500E-01 1.118 F 0.037 -0.293 -02° 33' 00.50" 1.000E-01 1.118 F -0.096 0.784 19.4 R 0.70 0.98 r P93 0.75 Yes Yes
2012TC4 O C 2017-10-08.43770 1.000E-05 22:59:23.900 1.500E-01 1.118 F 0.037 0.118 -02° 33' 02.80" 1.000E-01 1.118 F -0.096 0.478 19.1 R 0.70 0.68 r P93 0.44 Yes Yes
2012TC4 O C 2017-10-08.43931 1.000E-05 22:59:23.570 1.500E-01 1.118 F 0.037 0.829 -02° 33' 04.40" 1.000E-01 1.118 F -0.096 0.860 19.4 R 0.70 0.98 r P93 1.07 Yes Yes
2012TC4 O C 2017-10-08.44092 1.000E-05 22:59:23.150 1.500E-01 1.118 F 0.037 0.226 -02° 33' 07.80" 1.000E-01 1.118 F -0.096 -0.559 19.9 R 0.70 1.48 r P93 0.54 Yes Yes
2012TC4 O C 2017-10-10.47644 1.000E-05 22:54:31.580 1.500E-01 1.000 F -0.056 0.399 -03° 56' 02.40" 1.000E-01 1.000 F -0.064 0.257 16.9 R 0.70 0.05 r P93 0.47 Yes Yes
2012TC4 O C 2017-10-10.47736 1.000E-05 22:54:30.880 1.500E-01 1.000 F -0.056 -0.162 -03° 56' 07.50" 1.000E-01 1.000 F -0.064 0.087 17.5 R 0.70 0.65 r P93 0.18 Yes Yes
2012TC4 O C 2017-10-10.62893 1.000E-05 22:52:30.940 1.500E-01 1.000 F 0.026 0.202 -04° 10' 19.60" 1.000E-01 1.000 F -0.048 -0.045 16.7 R 0.70 0.02 r P93 0.21 Yes Yes
2012TC4 O C 2017-10-10.63170 1.000E-05 22:52:28.730 1.500E-01 1.000 F 0.026 0.009 -04° 10' 35.90" 1.000E-01 1.000 F -0.048 0.022 17.5 R 0.70 0.82 r P93 0.02 Yes Yes
2012TC4 O C 2017-10-11.42089 1.000E-05 22:45:22.000 1.500E-01 1.000 F 0.011 0.014 -06° 49' 39.70" 1.000E-01 1.000 F 0.005 -0.249 15.6 R 0.70 0.27 r P93 0.25 Yes Yes
2012TC4 O C 2017-10-11.42839 1.000E-05 22:45:06.270 1.500E-01 1.000 F -0.027 0.188 -06° 52' 44.30" 1.000E-01 1.000 F -0.016 0.102 15.6 R 0.70 0.29 r P93 0.21 Yes Yes
2012TC4 O C 2017-10-11.45364 1.000E-05 22:44:09.660 1.500E-01 1.000 F -0.027 0.053 -07° 03' 28.70" 1.000E-01 1.000 F -0.016 0.292 15.0 R 0.70 -0.25 r P93 0.30 Yes Yes
2012TC4 O C 2017-10-11.46110 1.000E-05 22:43:51.880 1.500E-01 1.000 F -0.027 0.094 -07° 06' 46.00" 1.000E-01 1.000 F -0.016 0.145 15.9 R 0.70 0.67 r P93 0.17 Yes Yes
2017UE5 O C 2017-10-25.59979 1.000E-05 03:27:49.720 1.500E-01 1.000 F 0.018 0.013 +39° 16' 39.60" 1.000E-01 1.000 F -0.060 -0.700 19.3 R 0.70 0.08 r P93 0.70 Yes Yes
2017UE5 O C 2017-10-25.61049 1.000E-05 03:27:55.860 1.500E-01 1.000 F 0.018 0.059 +39° 17' 16.40" 1.000E-01 1.000 F -0.060 -0.383 19.5 R 0.70 0.28 r P93 0.39 Yes Yes
2017UE5 O C 2017-10-25.61661 1.000E-05 03:27:59.400 1.500E-01 1.000 F 0.018 0.411 +39° 17' 38.50" 1.000E-01 1.000 F -0.060 0.911 19.5 R 0.70 0.28 r P93 1.01 Yes Yes
2003UV11 O C 2017-10-26.59037 1.000E-05 01:19:33.330 1.500E-01 1.118 F 0.004 0.013 +09° 01' 25.20" 1.000E-01 1.118 F 0.002 0.067 14.6 R 0.70 0.28 r P93 0.06 Yes Yes
2003UV11 O C 2017-10-26.59128 1.000E-05 01:19:32.070 1.500E-01 1.118 F 0.004 -0.104 +09° 01' 21.70" 1.000E-01 1.118 F 0.002 0.013 14.7 R 0.70 0.38 r P93 0.09 Yes Yes
2003UV11 O C 2017-10-26.59309 1.000E-05 01:19:29.600 1.500E-01 1.118 F 0.004 0.214 +09° 01' 14.50" 1.000E-01 1.118 F 0.002 -0.326 14.7 R 0.70 0.38 r P93 0.35 Yes Yes
2003UV11 O C 2017-10-26.59400 1.000E-05 01:19:28.330 1.500E-01 1.118 F 0.004 -0.035 +09° 01' 11.00" 1.000E-01 1.118 F 0.002 -0.375 14.7 R 0.70 0.38 r P93 0.34 Yes Yes
2003UV11 O C 2017-10-26.59673 1.000E-05 01:19:24.560 1.500E-01 1.118 F 0.004 -0.160 +09° 01' 01.00" 1.000E-01 1.118 F 0.002 -0.008 14.7 R 0.70 0.38 r P93 0.14 Yes Yes
2017UA6 O C 2017-10-26.60028 1.000E-05 23:23:27.200 1.500E-01 1.000 F 0.001 -1.567 -01° 49' 36.10" 1.000E-01 1.000 F -0.019 1.142 19.6 R 0.70 0.73 r P93 1.96 Yes Yes
2017UA6 O C 2017-10-26.60189 1.000E-05 23:23:23.990 1.500E-01 1.000 F 0.001 0.191 -01° 49' 50.60" 1.000E-01 1.000 F -0.019 0.292 19.5 R 0.70 0.63 r P93 0.35 Yes Yes
2017UA6 O C 2017-10-26.60512 1.000E-05 23:23:17.280 1.500E-01 1.000 F 0.001 -0.229 -01° 50' 18.90" 1.000E-01 1.000 F -0.019 -0.586 19.3 R 0.70 0.44 r P93 0.64 Yes Yes
2017UJ5 O C 2017-10-26.66688 1.000E-05 01:12:30.210 1.500E-01 1.000 F -0.014 0.240 +01° 21' 44.30" 1.000E-01 1.000 F -0.030 0.095 19.1 R 0.70 0.47 r P93 0.26 Yes Yes
2017UJ5 O C 2017-10-26.66850 1.000E-05 01:12:29.640 1.500E-01 1.000 F -0.014 1.176 +01° 22' 07.80" 1.000E-01 1.000 F -0.030 -0.152 19.5 R 0.70 0.87 r P93 1.21 Yes Yes
2017UJ5 O C 2017-10-26.67012 1.000E-05 01:12:29.000 1.500E-01 1.000 F -0.014 1.053 +01° 22' 31.60" 1.000E-01 1.000 F -0.030 -0.099 19.3 R 0.70 0.67 r P93 1.08 Yes Yes
2017UJ5 O C 2017-10-26.67174 1.000E-05 01:12:28.360 1.500E-01 1.000 F -0.014 0.922 +01° 22' 55.50" 1.000E-01 1.000 F -0.030 0.056 18.8 R 0.70 0.17 r P93 0.94 Yes Yes
2017UK6 O C 2017-10-26.68027 1.000E-05 04:49:33.300 1.500E-01 1.118 F -0.041 -0.126 +12° 14' 53.00" 1.000E-01 1.118 F -0.075 0.546 18.1 R 0.70 0.37 r P93 0.50 Yes Yes
2017UK6 O C 2017-10-26.68119 1.000E-05 04:49:32.590 1.500E-01 1.118 F -0.041 0.001 +12° 15' 35.30" 1.000E-01 1.118 F -0.075 0.019 18.0 R 0.70 0.27 r P93 0.02 Yes Yes
2017UK6 O C 2017-10-26.68211 1.000E-05 04:49:31.870 1.500E-01 1.118 F -0.041 -0.012 +12° 16' 18.40" 1.000E-01 1.118 F -0.075 0.284 18.1 R 0.70 0.37 r P93 0.26 Yes Yes

[1-200] [201-400] [401-600] [601-800] [801-1000] [1001-1200] [1201-1400] [1401-1600] [1601-1800] [1801-1981]